Time;durP1;ratioP1;P1;durP2;ratioP2;P2;SDS_P1;SDS_P2;PMS_P1;PMS_P2;Temp;Humidity;BMP_temperature;BMP_pressure;BME280_temperature;BME280_humidity;BME280_pressure;Samples;Min_cycle;Max_cycle;Signal;HPM_P1;HPM_P2
2021/08/26 00:01:02;;;;;;;12.40;5.10;;;16.80;99.90;;;;;;5029412;28;24443;-84
2021/08/26 00:06:19;;;;;;;15.50;5.63;;;16.90;99.90;;;;;;4991886;28;24478;-83
2021/08/26 00:08:48;;;;;;;15.18;5.57;;;16.70;99.90;;;;;;5030013;28;24578;-82
2021/08/26 00:11:19;;;;;;;15.85;5.47;;;16.70;99.90;;;;;;5029946;28;24516;-83
2021/08/26 00:13:46;;;;;;;17.33;5.40;;;16.70;99.90;;;;;;5025657;28;24427;-83
2021/08/26 00:16:14;;;;;;;14.60;5.53;;;16.70;99.90;;;;;;5014470;28;24412;-85
2021/08/26 00:18:40;;;;;;;13.55;5.30;;;16.70;99.90;;;;;;5031940;28;24470;-84
2021/08/26 00:21:06;;;;;;;15.37;5.93;;;16.70;99.90;;;;;;5031624;28;24792;-85
2021/08/26 00:23:32;;;;;;;16.60;5.80;;;16.70;99.90;;;;;;5032078;28;24462;-85
2021/08/26 00:26:00;;;;;;;15.63;5.83;;;16.90;99.90;;;;;;5030772;28;24520;-85
2021/08/26 00:28:26;;;;;;;15.20;5.27;;;16.70;99.90;;;;;;5030816;28;24494;-85
2021/08/26 00:30:54;;;;;;;15.55;5.95;;;16.70;99.90;;;;;;5030754;28;24432;-83
2021/08/26 00:33:22;;;;;;;14.52;5.40;;;16.70;99.90;;;;;;5030299;28;24432;-86
2021/08/26 00:35:51;;;;;;;14.75;6.10;;;16.70;99.90;;;;;;5009585;28;24511;-88
2021/08/26 00:38:16;;;;;;;18.52;5.70;;;16.70;99.90;;;;;;5014789;28;24444;-87
2021/08/26 00:40:44;;;;;;;17.60;6.07;;;16.70;99.90;;;;;;5029439;28;25209;-86
2021/08/26 00:43:14;;;;;;;13.80;5.45;;;16.70;99.90;;;;;;5030644;28;24423;-86
2021/08/26 00:45:41;;;;;;;17.80;6.30;;;16.70;99.90;;;;;;5028212;28;24439;-85
2021/08/26 00:48:07;;;;;;;11.90;5.22;;;16.70;99.90;;;;;;5026868;28;24529;-86
2021/08/26 00:50:36;;;;;;;18.67;6.30;;;17.00;99.90;;;;;;5030626;28;24495;-85
2021/08/26 00:53:01;;;;;;;17.98;5.85;;;16.70;99.90;;;;;;5029731;28;24494;-85
2021/08/26 00:55:30;;;;;;;17.93;6.40;;;16.70;99.90;;;;;;5028252;28;24431;-87
2021/08/26 00:57:58;;;;;;;15.93;5.80;;;16.60;99.90;;;;;;5028698;28;24789;-85
2021/08/26 01:00:26;;;;;;;18.08;5.85;;;16.60;99.90;;;;;;5030827;28;24443;-83
2021/08/26 01:03:12;;;;;;;16.00;5.90;;;16.70;99.90;;;;;;5027209;28;24494;-83
2021/08/26 01:05:52;;;;;;;16.65;5.88;;;16.70;99.90;;;;;;5027835;28;24547;-84
2021/08/26 01:08:47;;;;;;;14.18;5.50;;;16.70;99.90;;;;;;5017647;28;24813;-84
2021/08/26 01:11:16;;;;;;;16.60;6.20;;;16.70;99.90;;;;;;5008897;28;24450;-85
2021/08/26 01:13:44;;;;;;;14.80;6.10;;;16.60;99.90;;;;;;5011575;28;24432;-85
2021/08/26 01:16:18;;;;;;;17.70;6.30;;;16.50;99.90;;;;;;5028473;28;25061;-83
2021/08/26 01:18:45;;;;;;;16.10;6.00;;;16.60;99.90;;;;;;5032481;28;24499;-83
2021/08/26 01:21:15;;;;;;;15.32;6.13;;;16.60;99.90;;;;;;5026921;28;24530;-87
2021/08/26 01:23:48;;;;;;;15.65;6.30;;;16.60;99.90;;;;;;5029400;28;24526;-85
2021/08/26 01:26:23;;;;;;;14.85;6.40;;;16.50;99.90;;;;;;5029958;28;24467;-85
2021/08/26 01:28:50;;;;;;;18.05;6.22;;;16.90;99.90;;;;;;5026854;28;24428;-83
2021/08/26 01:31:20;;;;;;;19.00;6.25;;;16.60;99.90;;;;;;5015732;28;24486;-85
2021/08/26 01:33:52;;;;;;;15.90;6.47;;;16.50;99.90;;;;;;5031084;28;24483;-85
2021/08/26 01:36:18;;;;;;;16.63;5.88;;;16.60;99.90;;;;;;5028316;28;24412;-82
2021/08/26 01:38:47;;;;;;;15.77;7.37;;;16.60;99.90;;;;;;5014890;28;24528;-84
2021/08/26 01:41:36;;;;;;;16.92;6.55;;;16.60;99.90;;;;;;5027918;28;24590;-83
2021/08/26 01:44:04;;;;;;;17.70;6.13;;;16.60;99.90;;;;;;5026882;28;24453;-84
2021/08/26 01:46:30;;;;;;;16.88;6.13;;;16.60;99.90;;;;;;5029972;28;24590;-85
2021/08/26 01:48:56;;;;;;;18.90;6.63;;;16.40;99.90;;;;;;5031659;28;24459;-86
2021/08/26 01:51:21;;;;;;;18.33;6.13;;;16.40;99.90;;;;;;5032259;28;24540;-85
2021/08/26 01:53:50;;;;;;;20.60;7.43;;;16.40;99.90;;;;;;5031291;28;24505;-84
2021/08/26 01:56:15;;;;;;;17.00;6.50;;;16.40;99.90;;;;;;5033820;28;24556;-85
2021/08/26 01:58:44;;;;;;;16.10;6.60;;;16.50;99.90;;;;;;5014354;28;25038;-83
2021/08/26 02:01:16;;;;;;;18.20;6.50;;;16.40;99.90;;;;;;5034665;28;24443;-84
2021/08/26 02:03:41;;;;;;;18.52;7.03;;;16.40;99.90;;;;;;5030157;28;24442;-83
2021/08/26 02:06:07;;;;;;;19.42;6.90;;;16.40;99.90;;;;;;5025712;28;24427;-85
2021/08/26 02:08:32;;;;;;;16.80;6.20;;;16.30;99.90;;;;;;5032928;28;24427;-85
2021/08/26 02:11:00;;;;;;;18.07;6.50;;;16.40;99.90;;;;;;5033703;28;24439;-84
2021/08/26 02:13:25;;;;;;;20.13;6.90;;;16.30;99.90;;;;;;5028752;28;24453;-84
2021/08/26 02:15:51;;;;;;;19.33;6.40;;;16.40;99.90;;;;;;5034151;28;24416;-84
2021/08/26 02:18:19;;;;;;;19.25;6.68;;;16.40;99.90;;;;;;5038214;28;24583;-84
2021/08/26 02:20:47;;;;;;;14.98;6.30;;;16.40;99.90;;;;;;5036034;28;24446;-85
2021/08/26 02:23:12;;;;;;;19.60;6.50;;;16.40;99.90;;;;;;5019352;28;24987;-82
2021/08/26 02:25:42;;;;;;;16.00;6.47;;;16.40;99.90;;;;;;5032596;28;24432;-82
2021/08/26 02:28:08;;;;;;;20.77;7.38;;;16.30;99.90;;;;;;5020549;28;24455;-83
2021/08/26 02:30:34;;;;;;;18.58;6.72;;;16.30;99.90;;;;;;5016427;28;24456;-85
2021/08/26 02:32:59;;;;;;;16.77;6.20;;;16.30;99.90;;;;;;5030352;28;24442;-84
2021/08/26 02:35:25;;;;;;;15.50;6.40;;;16.30;99.90;;;;;;5032914;28;24420;-85
2021/08/26 02:37:50;;;;;;;20.17;6.47;;;16.30;99.90;;;;;;5027673;28;24436;-84
2021/08/26 02:40:18;;;;;;;18.13;6.63;;;16.30;99.90;;;;;;5029353;28;24463;-83
2021/08/26 02:42:44;;;;;;;19.25;6.53;;;16.30;99.90;;;;;;5032298;28;24539;-84
2021/08/26 02:45:10;;;;;;;18.30;6.30;;;16.30;99.90;;;;;;5029501;28;24440;-85
2021/08/26 02:47:40;;;;;;;16.33;5.97;;;16.30;99.90;;;;;;5028631;28;24536;-86
2021/08/26 02:50:06;;;;;;;13.68;5.90;;;16.30;99.90;;;;;;5032690;28;24451;-86
2021/08/26 02:52:31;;;;;;;16.55;6.18;;;16.30;99.90;;;;;;5031132;28;24455;-84
2021/08/26 02:54:59;;;;;;;17.95;6.90;;;16.30;99.90;;;;;;5019006;28;24424;-83
2021/08/26 02:57:25;;;;;;;19.95;6.38;;;16.20;99.90;;;;;;5030722;28;24518;-86
2021/08/26 02:59:50;;;;;;;13.45;6.20;;;16.20;99.90;;;;;;5031051;28;27855;-83
2021/08/26 03:02:16;;;;;;;15.87;5.90;;;16.40;99.90;;;;;;5030476;28;24448;-84
2021/08/26 03:04:49;;;;;;;14.83;6.20;;;16.20;99.90;;;;;;5013404;28;25025;-86
2021/08/26 03:07:17;;;;;;;15.95;5.78;;;16.20;99.90;;;;;;5031270;28;24455;-86
2021/08/26 03:09:42;;;;;;;15.90;5.90;;;16.30;99.90;;;;;;5034633;28;24436;-85
2021/08/26 03:12:08;;;;;;;17.70;6.17;;;16.20;99.90;;;;;;5031750;28;24531;-85
2021/08/26 03:14:34;;;;;;;14.57;6.30;;;16.20;99.90;;;;;;5034370;28;24539;-82
2021/08/26 03:16:59;;;;;;;17.10;6.00;;;16.20;99.90;;;;;;5020943;28;24439;-85
2021/08/26 03:19:27;;;;;;;17.00;5.57;;;16.40;99.90;;;;;;5037243;28;24436;-83
2021/08/26 03:21:53;;;;;;;15.77;6.10;;;16.10;99.90;;;;;;5031334;28;24482;-83
2021/08/26 03:24:18;;;;;;;18.10;6.20;;;16.10;99.90;;;;;;5031570;28;24543;-84
2021/08/26 03:26:46;;;;;;;15.70;5.88;;;16.10;99.90;;;;;;5032047;28;24886;-83
2021/08/26 03:29:12;;;;;;;14.80;6.00;;;16.10;99.90;;;;;;5031254;28;24510;-86
2021/08/26 03:31:40;;;;;;;18.63;6.20;;;16.10;99.90;;;;;;5031706;28;24467;-84
2021/08/26 03:34:05;;;;;;;17.00;6.50;;;16.10;99.90;;;;;;5031592;28;24519;-83
2021/08/26 03:36:36;;;;;;;16.90;6.20;;;16.10;99.90;;;;;;5034773;28;24443;-84
2021/08/26 03:39:02;;;;;;;15.90;6.10;;;16.10;99.90;;;;;;5030041;28;24547;-87
2021/08/26 03:41:27;;;;;;;15.35;6.00;;;16.10;99.90;;;;;;5012711;28;24605;-83
2021/08/26 03:43:53;;;;;;;13.83;6.17;;;16.10;99.90;;;;;;5025543;28;24575;-85
2021/08/26 03:46:18;;;;;;;15.45;5.95;;;16.50;99.90;;;;;;5029886;28;24459;-82
2021/08/26 03:48:44;;;;;;;15.97;5.60;;;16.20;99.90;;;;;;5028941;28;24438;-85
2021/08/26 03:51:12;;;;;;;18.45;6.60;;;16.20;99.90;;;;;;5031885;28;24521;-83
2021/08/26 03:53:38;;;;;;;14.63;6.20;;;16.10;99.90;;;;;;5034067;28;24424;-84
2021/08/26 03:56:06;;;;;;;15.97;6.30;;;16.10;99.90;;;;;;5035700;28;24447;-86
2021/08/26 03:58:33;;;;;;;18.60;6.78;;;16.10;99.90;;;;;;5032432;28;24428;-85
2021/08/26 04:01:15;;;;;;;16.70;6.47;;;16.10;99.90;;;;;;5014828;28;24589;-85
2021/08/26 04:03:40;;;;;;;16.42;6.57;;;16.10;99.90;;;;;;5032077;28;24430;-83
2021/08/26 04:06:06;;;;;;;15.57;6.00;;;16.10;99.90;;;;;;5029855;28;24442;-86
2021/08/26 04:08:32;;;;;;;17.92;6.53;;;16.10;99.90;;;;;;5033001;28;24424;-83
2021/08/26 04:10:57;;;;;;;16.63;5.90;;;16.30;99.90;;;;;;5015397;28;24452;-83
2021/08/26 04:13:25;;;;;;;17.37;5.80;;;16.00;99.90;;;;;;5017532;28;24436;-84
2021/08/26 04:15:53;;;;;;;15.10;6.20;;;16.10;99.90;;;;;;5030442;28;24417;-84
2021/08/26 04:18:21;;;;;;;16.50;6.80;;;16.10;99.90;;;;;;5033261;28;24443;-86
2021/08/26 04:20:48;;;;;;;16.35;6.20;;;16.10;99.90;;;;;;5029895;28;24934;-84
2021/08/26 04:23:16;;;;;;;17.25;6.00;;;15.90;99.90;;;;;;5030332;28;25046;-86
2021/08/26 04:25:47;;;;;;;17.35;6.63;;;16.10;99.90;;;;;;5027868;28;24451;-84
2021/08/26 04:28:13;;;;;;;18.35;6.15;;;16.10;99.90;;;;;;5032753;28;24516;-84
2021/08/26 04:30:41;;;;;;;16.50;6.47;;;16.10;99.90;;;;;;5031205;28;24464;-85
2021/08/26 04:33:07;;;;;;;16.48;6.05;;;16.10;99.90;;;;;;5037559;28;24436;-86
2021/08/26 04:35:35;;;;;;;16.10;6.18;;;16.10;99.90;;;;;;5032562;28;24456;-85
2021/08/26 04:38:01;;;;;;;15.13;6.10;;;16.20;99.90;;;;;;5031757;28;24562;-86
2021/08/26 04:40:26;;;;;;;15.67;6.13;;;16.20;99.90;;;;;;5033982;28;24460;-84
2021/08/26 04:42:52;;;;;;;16.70;6.30;;;16.20;99.90;;;;;;5036036;28;24505;-83
2021/08/26 04:45:17;;;;;;;18.47;6.43;;;16.20;99.90;;;;;;5033898;28;24412;-85
2021/08/26 04:47:43;;;;;;;17.27;6.53;;;16.20;99.90;;;;;;5034501;28;24458;-87
2021/08/26 04:50:11;;;;;;;16.73;5.80;;;16.20;99.90;;;;;;5034010;28;24441;-84
2021/08/26 04:52:39;;;;;;;17.52;6.50;;;16.20;99.90;;;;;;5032731;28;24435;-86
2021/08/26 04:55:05;;;;;;;16.70;6.65;;;16.20;99.90;;;;;;5033498;28;24470;-87
2021/08/26 04:57:33;;;;;;;20.27;6.97;;;16.20;99.90;;;;;;5018938;28;24466;-87
2021/08/26 05:00:03;;;;;;;16.20;6.40;;;16.20;99.90;;;;;;5033708;28;24560;-79
2021/08/26 05:02:28;;;;;;;14.40;6.32;;;16.30;99.90;;;;;;5038090;28;24431;-79
2021/08/26 05:04:56;;;;;;;15.55;6.00;;;16.20;99.90;;;;;;5035907;28;24452;-82
2021/08/26 05:07:22;;;;;;;17.60;6.38;;;16.30;99.90;;;;;;5030438;28;24550;-84
2021/08/26 05:09:50;;;;;;;17.95;6.40;;;16.30;99.90;;;;;;5033247;28;24467;-84
2021/08/26 05:12:16;;;;;;;12.45;5.97;;;16.40;99.90;;;;;;5030929;28;24471;-83
2021/08/26 05:14:44;;;;;;;17.83;5.93;;;16.40;99.90;;;;;;5026520;28;24424;-85
2021/08/26 05:17:09;;;;;;;14.32;6.40;;;16.40;99.90;;;;;;5035724;28;24423;-88
2021/08/26 05:19:35;;;;;;;13.90;6.13;;;16.30;99.90;;;;;;5035212;28;24444;-83
2021/08/26 05:22:03;;;;;;;15.87;6.03;;;16.40;99.90;;;;;;5030729;28;24458;-84
2021/08/26 05:24:30;;;;;;;14.50;5.88;;;16.60;99.90;;;;;;5026167;28;24490;-84
2021/08/26 05:26:55;;;;;;;18.23;6.38;;;16.30;99.90;;;;;;5030820;28;24539;-85
2021/08/26 05:29:21;;;;;;;14.27;5.73;;;16.40;99.90;;;;;;5026751;28;24444;-84
2021/08/26 05:31:46;;;;;;;15.67;6.00;;;16.40;99.90;;;;;;5026619;28;24437;-85
2021/08/26 05:34:12;;;;;;;15.25;5.93;;;16.40;99.90;;;;;;5026984;28;24532;-86
2021/08/26 05:36:38;;;;;;;11.33;5.80;;;16.40;99.90;;;;;;5031287;28;24505;-84
2021/08/26 05:39:03;;;;;;;14.18;5.78;;;16.40;99.90;;;;;;5032340;28;24427;-84
2021/08/26 05:41:29;;;;;;;14.70;5.90;;;16.40;99.90;;;;;;5031541;28;24435;-84
2021/08/26 05:43:54;;;;;;;12.55;5.78;;;16.50;99.90;;;;;;5012762;28;24448;-83
2021/08/26 05:46:20;;;;;;;14.33;5.77;;;16.50;99.90;;;;;;5032391;28;24513;-84
2021/08/26 05:48:46;;;;;;;13.05;5.35;;;16.50;99.90;;;;;;5019145;28;24473;-87
2021/08/26 05:51:11;;;;;;;12.40;6.07;;;16.50;99.90;;;;;;5035159;28;24470;-84
2021/08/26 05:53:37;;;;;;;14.60;5.30;;;16.50;99.90;;;;;;5032708;28;24428;-84
2021/08/26 05:56:02;;;;;;;14.63;5.30;;;16.60;99.90;;;;;;5017402;28;24445;-85
2021/08/26 05:58:28;;;;;;;14.40;5.77;;;16.60;99.90;;;;;;5033044;28;25775;-84
2021/08/26 06:00:54;;;;;;;13.65;5.35;;;16.60;99.90;;;;;;5016454;28;24447;-83
2021/08/26 06:03:19;;;;;;;15.50;5.37;;;16.70;99.90;;;;;;5029527;28;24436;-85
2021/08/26 06:05:47;;;;;;;12.10;4.93;;;16.70;99.90;;;;;;5017613;28;25185;-85
2021/08/26 06:08:13;;;;;;;12.20;4.75;;;16.70;99.90;;;;;;5016811;28;24440;-85
2021/08/26 06:10:38;;;;;;;12.35;4.80;;;17.10;99.90;;;;;;5027726;28;24480;-82
2021/08/26 06:13:04;;;;;;;11.17;4.80;;;16.80;99.90;;;;;;5030822;28;24451;-84
2021/08/26 06:15:33;;;;;;;13.63;4.90;;;16.80;99.90;;;;;;5014893;28;24497;-84
2021/08/26 06:17:58;;;;;;;10.57;4.90;;;16.90;99.90;;;;;;5026180;28;24440;-83
2021/08/26 06:20:24;;;;;;;12.90;4.83;;;16.90;99.90;;;;;;5029497;28;24455;-85
2021/08/26 06:22:49;;;;;;;12.90;5.18;;;16.80;99.90;;;;;;5034881;28;24450;-85
2021/08/26 06:25:15;;;;;;;10.30;4.60;;;16.80;99.90;;;;;;5016890;28;24445;-83
2021/08/26 06:27:41;;;;;;;10.25;4.63;;;16.80;99.90;;;;;;5032981;28;26223;-84
2021/08/26 06:30:10;;;;;;;12.48;4.65;;;17.10;99.90;;;;;;5033154;28;24551;-85
2021/08/26 06:32:36;;;;;;;13.32;4.60;;;16.80;99.90;;;;;;5035409;28;24444;-83
2021/08/26 06:35:03;;;;;;;12.00;4.70;;;16.80;99.90;;;;;;5030017;28;24882;-85
2021/08/26 06:37:29;;;;;;;9.37;4.33;;;16.80;99.90;;;;;;5036201;28;24416;-83
2021/08/26 06:39:55;;;;;;;10.18;4.28;;;16.70;99.90;;;;;;5017634;28;24614;-84
2021/08/26 06:42:21;;;;;;;10.90;4.80;;;16.60;99.90;;;;;;5037140;28;24887;-84
2021/08/26 06:44:47;;;;;;;12.23;4.90;;;16.60;99.90;;;;;;5020529;28;24414;-83
2021/08/26 06:47:12;;;;;;;10.13;4.80;;;16.60;99.90;;;;;;5034620;28;24438;-84
2021/08/26 06:49:38;;;;;;;7.50;3.97;;;16.70;99.90;;;;;;5029801;28;24494;-87
2021/08/26 06:52:04;;;;;;;11.13;4.80;;;16.90;99.90;;;;;;5032381;28;24439;-84
2021/08/26 06:54:29;;;;;;;11.95;4.80;;;16.70;99.90;;;;;;5030821;28;24437;-83
2021/08/26 06:56:55;;;;;;;14.70;4.73;;;16.70;99.90;;;;;;5027561;28;24626;-85
2021/08/26 06:59:21;;;;;;;10.52;4.00;;;16.60;99.90;;;;;;5031310;28;25362;-84
2021/08/26 07:01:46;;;;;;;12.33;4.60;;;16.70;99.90;;;;;;5029327;28;24440;-84
2021/08/26 07:04:12;;;;;;;10.10;4.20;;;16.80;99.90;;;;;;5033423;28;24455;-83
2021/08/26 07:06:37;;;;;;;10.37;4.43;;;17.00;99.90;;;;;;5031913;28;24443;-84
2021/08/26 07:09:03;;;;;;;12.00;4.73;;;17.20;99.90;;;;;;5032430;28;24439;-87
2021/08/26 07:11:29;;;;;;;11.63;4.65;;;17.30;99.90;;;;;;5014132;28;24478;-83
2021/08/26 07:13:55;;;;;;;9.73;3.90;;;17.40;99.90;;;;;;5034479;28;24424;-83
2021/08/26 07:16:20;;;;;;;9.43;4.20;;;17.40;99.90;;;;;;5035099;28;24436;-86
2021/08/26 07:18:49;;;;;;;8.23;3.90;;;17.30;99.90;;;;;;5033515;28;24831;-84
2021/08/26 07:21:14;;;;;;;6.55;3.60;;;17.40;99.90;;;;;;5031812;28;24431;-83
2021/08/26 07:23:40;;;;;;;10.60;3.73;;;17.50;99.90;;;;;;5031478;28;24458;-85
2021/08/26 07:26:06;;;;;;;9.93;4.05;;;17.50;99.90;;;;;;5028431;28;24512;-85
2021/08/26 07:28:32;;;;;;;7.53;3.70;;;17.90;99.90;;;;;;5033510;28;24991;-83
2021/08/26 07:30:58;;;;;;;9.20;3.30;;;17.40;99.90;;;;;;5027225;28;25232;-86
2021/08/26 07:33:24;;;;;;;8.88;3.50;;;17.40;99.90;;;;;;5031587;28;24498;-85
2021/08/26 07:35:49;;;;;;;6.63;2.90;;;17.50;99.90;;;;;;5011054;28;25053;-84
2021/08/26 07:38:15;;;;;;;5.90;3.30;;;17.60;99.90;;;;;;5009689;28;24545;-86
2021/08/26 07:40:44;;;;;;;6.17;2.97;;;17.60;99.90;;;;;;5015542;28;24458;-85
2021/08/26 07:43:09;;;;;;;5.78;2.70;;;17.60;99.90;;;;;;5033018;28;24458;-85
2021/08/26 07:45:35;;;;;;;8.20;3.10;;;17.70;99.90;;;;;;5032162;28;24425;-84
2021/08/26 07:48:00;;;;;;;6.20;2.83;;;17.70;99.90;;;;;;5029475;28;24432;-84
2021/08/26 07:50:26;;;;;;;6.00;2.90;;;17.80;99.90;;;;;;5020536;28;24444;-84
2021/08/26 07:52:51;;;;;;;4.67;2.80;;;17.80;99.90;;;;;;5027942;28;24444;-85
2021/08/26 07:55:17;;;;;;;6.00;2.60;;;18.10;99.90;;;;;;5027181;28;24416;-83
2021/08/26 07:57:45;;;;;;;5.40;2.70;;;17.90;99.90;;;;;;5027745;28;24432;-84
2021/08/26 08:00:11;;;;;;;5.95;2.75;;;18.10;99.90;;;;;;5011866;28;24523;-84
2021/08/26 08:02:36;;;;;;;5.18;2.38;;;18.20;99.90;;;;;;5026261;28;24424;-84
2021/08/26 08:05:02;;;;;;;8.40;3.00;;;18.20;99.90;;;;;;5019218;28;24611;-84
2021/08/26 08:07:28;;;;;;;6.07;2.40;;;18.20;99.90;;;;;;5022362;28;24534;-84
2021/08/26 08:09:53;;;;;;;6.10;2.40;;;18.30;99.90;;;;;;5009654;28;24448;-84
2021/08/26 08:12:26;;;;;;;6.40;2.47;;;18.20;99.90;;;;;;5028121;28;25029;-85
2021/08/26 08:14:54;;;;;;;6.50;2.50;;;18.20;99.90;;;;;;5028897;28;24415;-84
2021/08/26 08:17:20;;;;;;;5.47;2.20;;;18.20;99.90;;;;;;5024895;28;24435;-86
2021/08/26 08:19:45;;;;;;;5.17;2.10;;;18.30;99.90;;;;;;5027694;28;24566;-84
2021/08/26 08:22:11;;;;;;;6.23;2.50;;;18.30;99.90;;;;;;5025619;28;24818;-84
2021/08/26 08:24:40;;;;;;;4.70;2.38;;;18.20;99.90;;;;;;5007373;28;24550;-84
2021/08/26 08:27:05;;;;;;;5.70;2.22;;;18.30;99.90;;;;;;5029078;28;24477;-84
2021/08/26 08:29:31;;;;;;;4.97;2.25;;;18.30;99.90;;;;;;5029318;28;24515;-83
2021/08/26 08:31:56;;;;;;;5.40;2.10;;;18.30;99.90;;;;;;5033951;28;24976;-84
2021/08/26 08:34:22;;;;;;;4.80;2.20;;;18.70;99.90;;;;;;5030099;28;24438;-84
2021/08/26 08:36:48;;;;;;;6.80;2.10;;;18.40;99.90;;;;;;5010758;28;24490;-85
2021/08/26 08:39:13;;;;;;;3.80;1.87;;;18.40;99.90;;;;;;5030378;28;24432;-85
2021/08/26 08:41:39;;;;;;;4.50;2.00;;;18.30;99.90;;;;;;5012974;28;24475;-86
2021/08/26 08:44:04;;;;;;;6.85;2.30;;;18.40;99.90;;;;;;5034819;28;24436;-82
2021/08/26 08:46:32;;;;;;;3.77;1.90;;;18.40;99.90;;;;;;5027895;28;27888;-85
2021/08/26 08:49:01;;;;;;;7.07;2.30;;;18.50;99.90;;;;;;5031584;28;24447;-82
2021/08/26 08:51:29;;;;;;;4.37;1.90;;;18.60;99.90;;;;;;5030072;28;24459;-83
2021/08/26 08:53:56;;;;;;;5.03;1.88;;;18.60;99.90;;;;;;5033320;28;25074;-84
2021/08/26 08:56:26;;;;;;;4.97;2.00;;;18.60;99.90;;;;;;5035352;28;24455;-85
2021/08/26 08:58:58;;;;;;;4.07;1.80;;;18.60;99.90;;;;;;5033217;28;24454;-84
2021/08/26 09:01:48;;;;;;;4.70;1.80;;;18.70;99.90;;;;;;5027629;28;24443;-84
2021/08/26 09:04:14;;;;;;;3.08;1.88;;;19.00;99.90;;;;;;5025731;28;24426;-86
2021/08/26 09:06:41;;;;;;;4.97;1.83;;;18.90;99.90;;;;;;5024382;28;24503;-85
2021/08/26 09:09:08;;;;;;;4.10;1.70;;;18.80;99.90;;;;;;5026446;28;24499;-84
2021/08/26 09:11:34;;;;;;;4.20;1.50;;;18.90;99.90;;;;;;5007207;28;24485;-84
2021/08/26 09:14:13;;;;;;;4.78;1.70;;;19.00;99.90;;;;;;5027742;28;24428;-85
2021/08/26 09:16:46;;;;;;;2.90;1.50;;;19.00;99.90;;;;;;5008575;28;24424;-84
2021/08/26 09:19:29;;;;;;;3.80;1.50;;;19.10;99.90;;;;;;5012315;28;24455;-84
2021/08/26 09:21:55;;;;;;;3.40;1.38;;;19.00;99.90;;;;;;5023688;28;25016;-85
2021/08/26 09:24:21;;;;;;;5.00;1.83;;;19.10;99.90;;;;;;5025397;28;25011;-84
2021/08/26 09:26:48;;;;;;;4.40;1.40;;;19.10;99.90;;;;;;5025564;28;24486;-83
2021/08/26 09:29:14;;;;;;;3.42;1.52;;;19.10;99.90;;;;;;5016823;28;24437;-83
2021/08/26 09:31:42;;;;;;;3.47;1.50;;;19.20;99.90;;;;;;5030650;28;24801;-83
2021/08/26 09:34:16;;;;;;;4.20;1.90;;;19.20;99.90;;;;;;5031743;28;24419;-83
2021/08/26 09:36:48;;;;;;;5.10;1.40;;;19.30;99.90;;;;;;5023155;28;24417;-84
2021/08/26 09:39:24;;;;;;;2.50;1.30;;;19.50;99.90;;;;;;5032535;28;24419;-85
2021/08/26 09:41:58;;;;;;;3.75;1.55;;;19.80;99.90;;;;;;5012541;28;24473;-82
2021/08/26 09:44:33;;;;;;;2.97;1.17;;;19.70;99.90;;;;;;5032846;28;24984;-82
2021/08/26 09:47:01;;;;;;;4.50;1.67;;;19.70;99.90;;;;;;5016235;28;24447;-82
2021/08/26 09:49:29;;;;;;;2.33;1.17;;;19.60;99.90;;;;;;5031662;28;24460;-82
2021/08/26 09:52:23;;;;;;;2.15;1.20;;;19.70;99.90;;;;;;5035104;28;24910;-82
2021/08/26 09:54:54;;;;;;;3.15;1.20;;;19.70;99.90;;;;;;5034881;28;24446;-82
2021/08/26 09:57:25;;;;;;;2.58;1.23;;;19.60;99.90;;;;;;5034810;28;24434;-82
2021/08/26 09:59:55;;;;;;;3.50;1.55;;;19.60;99.90;;;;;;5022019;28;24916;-84
2021/08/26 10:02:22;;;;;;;2.50;1.27;;;19.80;99.90;;;;;;5029897;28;24497;-82
2021/08/26 10:04:48;;;;;;;2.67;1.50;;;19.60;99.90;;;;;;5028718;28;24431;-82
2021/08/26 10:07:15;;;;;;;3.10;1.38;;;19.50;99.90;;;;;;5012929;28;24447;-82
2021/08/26 10:09:44;;;;;;;3.92;1.20;;;19.50;99.90;;;;;;5033966;28;24471;-84
2021/08/26 10:12:14;;;;;;;3.40;1.30;;;19.40;99.90;;;;;;5033424;28;24495;-83
2021/08/26 10:14:47;;;;;;;4.57;1.33;;;19.30;99.90;;;;;;5015039;28;24462;-83
2021/08/26 10:17:13;;;;;;;4.40;1.42;;;19.40;99.90;;;;;;5029451;28;24783;-83
2021/08/26 10:19:40;;;;;;;3.50;1.70;;;19.50;99.90;;;;;;5031034;28;24452;-83
2021/08/26 10:22:07;;;;;;;2.20;1.40;;;19.50;99.90;;;;;;5014061;28;24436;-83
2021/08/26 10:24:33;;;;;;;2.53;1.17;;;19.50;99.90;;;;;;5021631;28;24515;-82
2021/08/26 10:27:20;;;;;;;3.45;1.50;;;19.50;99.90;;;;;;5033615;28;24451;-84
2021/08/26 10:29:48;;;;;;;3.30;1.30;;;19.50;99.90;;;;;;5027514;28;24454;-83
2021/08/26 10:35:11;;;;;;;3.95;1.63;;;19.60;99.90;;;;;;5024095;28;24447;-83
2021/08/26 10:37:45;;;;;;;3.55;1.70;;;19.70;99.90;;;;;;5019854;28;24777;-83
2021/08/26 10:40:33;;;;;;;6.38;2.10;;;19.80;99.90;;;;;;5007755;28;24528;-84
2021/08/26 10:42:59;;;;;;;8.80;1.80;;;19.80;99.90;;;;;;5024253;28;24563;-84
2021/08/26 10:45:29;;;;;;;5.30;1.58;;;19.70;99.90;;;;;;5034443;28;24448;-85
2021/08/26 10:48:02;;;;;;;7.95;2.20;;;19.60;99.90;;;;;;5031618;28;24426;-81
2021/08/26 10:50:37;;;;;;;4.20;1.40;;;19.60;99.90;;;;;;5015471;28;24451;-83
2021/08/26 10:53:05;;;;;;;3.70;1.00;;;19.60;99.90;;;;;;5030607;28;24436;-82
2021/08/26 10:55:47;;;;;;;2.60;0.80;;;19.70;99.90;;;;;;5015541;28;20819;-83
2021/08/26 10:58:21;;;;;;;1.80;1.00;;;19.90;99.90;;;;;;5034469;28;24428;-83
2021/08/26 11:00:59;;;;;;;2.00;1.00;;;20.00;99.90;;;;;;5034322;28;24458;-83
2021/08/26 11:03:46;;;;;;;1.45;0.70;;;20.10;99.90;;;;;;5028558;28;24463;-83
2021/08/26 11:06:17;;;;;;;1.60;0.80;;;20.30;99.90;;;;;;5008139;28;24423;-84
2021/08/26 11:08:45;;;;;;;2.80;1.10;;;20.30;99.90;;;;;;5022687;28;24707;-83
2021/08/26 11:11:26;;;;;;;2.05;0.95;;;20.40;99.90;;;;;;5026224;28;24463;-83
2021/08/26 11:14:02;;;;;;;2.60;0.90;;;20.40;99.90;;;;;;5016424;28;24426;-82
2021/08/26 11:16:28;;;;;;;1.35;0.70;;;20.40;99.90;;;;;;5028515;28;24420;-83
2021/08/26 11:19:13;;;;;;;1.30;0.70;;;20.30;99.90;;;;;;5016518;28;24443;-84
2021/08/26 11:21:44;;;;;;;2.40;0.90;;;20.40;99.90;;;;;;5032431;28;24412;-82
2021/08/26 11:24:30;;;;;;;2.05;0.90;;;20.50;99.90;;;;;;5030678;28;24438;-85
2021/08/26 11:26:57;;;;;;;2.20;1.00;;;20.50;99.90;;;;;;5017325;28;24976;-81
2021/08/26 11:29:23;;;;;;;2.55;0.75;;;20.50;99.90;;;;;;5019190;28;24427;-80
2021/08/26 11:31:54;;;;;;;2.57;0.97;;;20.40;99.90;;;;;;5019664;28;25013;-80
2021/08/26 11:34:30;;;;;;;2.07;0.87;;;20.20;99.90;;;;;;5015840;28;25000;-78
2021/08/26 11:37:09;;;;;;;2.08;0.70;;;20.20;99.90;;;;;;5004332;28;24436;-80
2021/08/26 11:39:39;;;;;;;2.75;0.90;;;20.20;99.90;;;;;;5017163;28;24440;-80
2021/08/26 11:42:26;;;;;;;2.15;0.80;;;20.20;99.90;;;;;;5018462;28;24446;-81
2021/08/26 11:45:06;;;;;;;1.63;0.80;;;20.20;99.90;;;;;;5000137;28;24477;-80
2021/08/26 11:47:33;;;;;;;1.70;0.70;;;20.20;99.90;;;;;;4999394;28;24470;-78
2021/08/26 11:50:22;;;;;;;1.90;0.90;;;20.30;99.90;;;;;;5019689;28;24851;-77
2021/08/26 11:52:52;;;;;;;2.20;0.77;;;20.30;99.90;;;;;;5019016;28;24432;-86
2021/08/26 11:55:20;;;;;;;2.30;1.00;;;20.30;99.90;;;;;;5013425;28;24450;-80
2021/08/26 11:57:45;;;;;;;1.88;0.98;;;20.10;99.90;;;;;;5023863;28;24467;-80
2021/08/26 12:00:14;;;;;;;2.90;1.40;;;20.10;99.90;;;;;;5028216;28;24793;-80
2021/08/26 12:02:41;;;;;;;3.67;0.80;;;20.10;99.90;;;;;;5010447;28;24875;-79
2021/08/26 12:05:12;;;;;;;4.13;1.20;;;20.20;99.90;;;;;;5015141;28;24497;-79
2021/08/26 12:07:40;;;;;;;2.13;0.80;;;20.10;99.90;;;;;;5020901;28;24431;-80
2021/08/26 12:10:10;;;;;;;1.90;0.70;;;20.10;99.90;;;;;;5017871;28;24442;-76
2021/08/26 12:12:38;;;;;;;1.42;0.70;;;20.10;99.90;;;;;;5016597;28;24519;-76
2021/08/26 12:15:05;;;;;;;2.70;1.10;;;20.00;99.90;;;;;;5016471;28;24823;-75
2021/08/26 12:17:34;;;;;;;2.83;1.00;;;20.10;99.90;;;;;;5014939;28;24505;-78
2021/08/26 12:20:00;;;;;;;2.67;0.90;;;20.10;99.90;;;;;;5016444;28;24445;-77
2021/08/26 12:22:27;;;;;;;2.40;0.85;;;20.10;99.90;;;;;;5020208;28;24478;-78
2021/08/26 12:25:00;;;;;;;1.73;0.90;;;20.00;99.90;;;;;;5016949;28;20753;-76
2021/08/26 12:27:30;;;;;;;2.90;0.90;;;20.00;99.90;;;;;;5019268;28;24426;-76
2021/08/26 12:29:57;;;;;;;2.50;0.90;;;20.00;99.90;;;;;;5015800;28;24451;-77
2021/08/26 12:32:37;;;;;;;1.95;0.80;;;19.90;99.90;;;;;;5015559;28;24478;-80
2021/08/26 12:35:25;;;;;;;2.17;1.00;;;19.80;99.90;;;;;;5007715;28;25255;-78
2021/08/26 12:37:56;;;;;;;2.40;0.80;;;19.70;99.90;;;;;;5011829;28;24416;-78
2021/08/26 12:40:24;;;;;;;2.90;0.90;;;19.70;99.90;;;;;;4996675;28;24431;-78
2021/08/26 12:43:18;;;;;;;1.50;1.00;;;19.80;99.90;;;;;;5011391;28;24466;-78
2021/08/26 12:45:44;;;;;;;2.30;0.80;;;20.00;99.90;;;;;;5008349;28;24432;-76
2021/08/26 12:48:26;;;;;;;1.35;0.85;;;20.10;99.90;;;;;;5018078;28;24446;-81
2021/08/26 12:51:08;;;;;;;2.78;1.05;;;20.20;99.90;;;;;;5020820;28;25088;-79
2021/08/26 12:53:35;;;;;;;1.70;0.80;;;20.30;99.90;;;;;;5018174;28;24419;-80